createdAt,value
2022-10-15T00:00:16.457Z,99870.69
2022-10-15T00:03:19.931Z,99868.84
2022-10-15T00:06:23.148Z,99879.22
2022-10-15T00:09:28.128Z,99874.16
2022-10-15T00:12:31.320Z,99868.84
2022-10-15T00:15:37.051Z,99866.41
2022-10-15T00:18:41.122Z,99859.53
2022-10-15T00:21:44.476Z,99860.66
2022-10-15T00:24:49.063Z,99848.50
2022-10-15T00:27:52.280Z,99855.25
2022-10-15T00:31:01.708Z,99849.31
2022-10-15T00:34:05.037Z,99853.31
2022-10-15T00:37:08.489Z,99848.84
2022-10-15T00:40:15.734Z,99854.09
2022-10-15T00:43:18.962Z,99850.78
2022-10-15T00:46:26.136Z,99848.97
2022-10-15T00:49:32.544Z,99840.72
2022-10-15T00:52:43.664Z,99847.16
2022-10-15T00:55:48.350Z,99841.72
2022-10-15T00:58:54.421Z,99837.63
2022-10-15T01:01:57.658Z,99834.72
2022-10-15T01:05:00.926Z,99840.06
2022-10-15T01:08:04.313Z,99831.88
2022-10-15T01:11:21.612Z,99832.22
2022-10-15T01:14:36.811Z,99838.09
2022-10-15T01:17:46.368Z,99841.56
2022-10-15T01:20:56.417Z,99841.09
2022-10-15T01:24:30.701Z,99837.97
2022-10-15T01:27:43.522Z,99830.75
2022-10-15T01:30:59.682Z,99836.84
2022-10-15T01:34:05.751Z,99836.22
2022-10-15T01:37:14.224Z,99841.44
2022-10-15T01:40:22.332Z,99836.31
2022-10-15T01:43:31.957Z,99833.25
2022-10-15T01:46:59.377Z,99835.03
2022-10-15T01:50:06.279Z,99845.22
2022-10-15T01:53:12.404Z,99840.13
2022-10-15T01:56:21.783Z,99836.22
2022-10-15T01:59:29.213Z,99842.94
2022-10-15T02:02:33.790Z,99843.63
2022-10-15T02:05:43.689Z,99841.66
2022-10-15T02:08:56.964Z,99841.81
2022-10-15T02:12:10.250Z,99839.66
2022-10-15T02:15:20.440Z,99841.47
2022-10-15T02:18:32.675Z,99834.72
2022-10-15T02:21:43.195Z,99839.84
2022-10-15T02:24:55.514Z,99839.16
2022-10-15T02:28:01.107Z,99838.69
2022-10-15T02:31:05.256Z,99836.72
2022-10-15T02:34:13.288Z,99841.31
2022-10-15T02:37:19.619Z,99842.63
2022-10-15T02:40:27.364Z,99842.09
2022-10-15T02:43:32.243Z,99840.31
2022-10-15T02:46:36.005Z,99838.69
2022-10-15T02:49:40.679Z,99841.66
2022-10-15T02:52:44.054Z,99841.97
2022-10-15T02:55:48.139Z,99832.06
2022-10-15T02:58:51.362Z,99838.81
2022-10-15T03:01:55.985Z,99837.53
2022-10-15T03:05:02.007Z,99843.75
2022-10-15T03:08:05.732Z,99840.34
2022-10-15T03:11:09.464Z,99837.06
2022-10-15T03:14:14.519Z,99839.03
2022-10-15T03:17:17.973Z,99837.03
2022-10-15T03:20:22.631Z,99843.75
2022-10-15T03:23:26.083Z,99839.84
2022-10-15T03:26:39.003Z,99847.75
2022-10-15T03:29:42.622Z,99849.53
2022-10-15T03:32:45.944Z,99847.06
2022-10-15T03:35:50.774Z,99849.22
2022-10-15T03:38:54.107Z,99850.69
2022-10-15T03:41:57.397Z,99855.25
2022-10-15T03:45:10.049Z,99844.09
2022-10-15T03:48:13.906Z,99847.22
2022-10-15T03:51:22.735Z,99851.97
2022-10-15T03:54:33.062Z,99846.06
2022-10-15T03:57:36.760Z,99851.66
2022-10-15T04:00:42.875Z,99853.28
2022-10-15T04:03:47.149Z,99850.38
2022-10-15T04:06:54.899Z,99851.34
2022-10-15T04:09:58.318Z,99848.03
2022-10-15T04:13:11.580Z,99845.75
2022-10-15T04:16:16.599Z,99855.94
2022-10-15T04:19:19.940Z,99849.50
2022-10-15T04:22:34.890Z,99855.59
2022-10-15T04:25:38.859Z,99844.88
2022-10-15T04:28:42.160Z,99847.41
2022-10-15T04:31:46.205Z,99849.03
2022-10-15T04:34:49.603Z,99845.38
2022-10-15T04:37:58.889Z,99848.34
2022-10-15T04:41:04.927Z,99847.22
2022-10-15T04:44:21.994Z,99854.44
2022-10-15T04:47:30.642Z,99859.84
2022-10-15T04:50:45.502Z,99851.25
2022-10-15T04:53:58.048Z,99855.22
2022-10-15T04:57:01.315Z,99860.81
2022-10-15T05:00:05.544Z,99860.94
2022-10-15T05:03:08.805Z,99859.31
2022-10-15T05:06:34.289Z,99861.63
2022-10-15T05:09:52.589Z,99865.72
2022-10-15T05:12:56.990Z,99865.91
2022-10-15T05:16:13.602Z,99866.00
2022-10-15T05:19:18.063Z,99871.59
2022-10-15T05:22:21.737Z,99870.59
2022-10-15T05:25:36.503Z,99878.81
2022-10-15T05:28:40.737Z,99883.13
2022-10-15T05:31:44.040Z,99881.13
2022-10-15T05:34:52.514Z,99879.50
2022-10-15T05:37:55.880Z,99883.88
2022-10-15T05:41:01.462Z,99885.66
2022-10-15T05:44:05.006Z,99889.50
2022-10-15T05:47:11.949Z,99891.16
2022-10-15T05:50:17.154Z,99892.75
2022-10-15T05:53:23.818Z,99907.34
2022-10-15T05:56:40.100Z,99911.97
2022-10-15T05:59:43.338Z,99916.41
2022-10-15T06:02:46.679Z,99915.59
2022-10-15T06:05:50.116Z,99912.94
2022-10-15T06:08:54.082Z,99921.34
2022-10-15T06:11:58.669Z,99914.28
2022-10-15T06:15:01.894Z,99921.19
2022-10-15T06:18:05.341Z,99923.88
2022-10-15T06:21:09.012Z,99929.91
2022-10-15T06:24:12.658Z,99926.66
2022-10-15T06:27:17.326Z,99924.34
2022-10-15T06:30:21.387Z,99927.34
2022-10-15T06:33:24.635Z,99936.00
2022-10-15T06:36:27.821Z,99944.38
2022-10-15T06:39:32.556Z,99944.56
2022-10-15T06:42:37.291Z,99941.72
2022-10-15T06:45:42.662Z,99941.81
2022-10-15T06:48:53.132Z,99937.34
2022-10-15T06:52:01.022Z,99940.84
2022-10-15T06:55:07.893Z,99942.03
2022-10-15T06:58:12.558Z,99943.38
2022-10-15T07:01:15.762Z,99952.59
2022-10-15T07:04:18.935Z,99948.97
2022-10-15T07:07:22.193Z,99951.69
2022-10-15T07:10:26.695Z,99948.06
2022-10-15T07:13:32.035Z,99942.16
2022-10-15T07:16:39.472Z,99947.03
2022-10-15T07:19:42.671Z,99949.53
2022-10-15T07:22:45.972Z,99949.53
2022-10-15T07:25:49.171Z,99945.72
2022-10-15T07:28:53.822Z,99942.63
2022-10-15T07:31:57.121Z,99944.50
2022-10-15T07:35:00.304Z,99948.19
2022-10-15T07:38:04.663Z,99952.66
2022-10-15T07:41:09.082Z,99954.94
2022-10-15T07:44:19.976Z,99953.75
2022-10-15T07:47:23.549Z,99953.28
2022-10-15T07:50:29.307Z,99946.31
2022-10-15T07:53:37.028Z,99953.72
2022-10-15T07:56:40.713Z,99948.44
2022-10-15T07:59:45.299Z,99950.03
2022-10-15T08:02:48.614Z,99943.91
2022-10-15T08:05:56.344Z,99949.06
2022-10-15T08:09:00.667Z,99948.09
2022-10-15T08:12:07.157Z,99945.66
2022-10-15T08:15:12.449Z,99950.94
2022-10-15T08:18:15.827Z,99946.88
2022-10-15T08:21:19.046Z,99941.47
2022-10-15T08:24:22.302Z,99947.56
2022-10-15T08:27:25.538Z,99946.34
2022-10-15T08:30:34.806Z,99934.28
2022-10-15T08:33:46.543Z,99940.56
2022-10-15T08:36:49.715Z,99936.16
2022-10-15T08:39:52.923Z,99937.81
2022-10-15T08:42:56.908Z,99938.38
2022-10-15T08:46:05.178Z,99942.38
2022-10-15T08:49:13.987Z,99950.31
2022-10-15T08:52:24.135Z,99947.28
2022-10-15T08:55:35.804Z,99948.47
2022-10-15T08:58:50.163Z,99961.25
2022-10-15T09:02:00.220Z,99963.56
2022-10-15T09:05:17.097Z,99966.88
2022-10-15T09:08:26.649Z,99969.53
2022-10-15T09:11:42.435Z,99969.34
2022-10-15T09:14:48.953Z,99963.84
2022-10-15T09:17:55.434Z,99967.22
2022-10-15T09:21:03.623Z,99957.31
2022-10-15T09:24:07.611Z,99962.63
2022-10-15T09:27:17.423Z,99965.75
2022-10-15T09:30:34.910Z,99965.16
2022-10-15T09:33:44.887Z,99960.78
2022-10-15T09:36:54.292Z,99966.44
2022-10-15T09:40:23.538Z,99957.16
2022-10-15T09:43:35.132Z,99951.84
2022-10-15T09:46:45.322Z,99962.22
2022-10-15T09:49:50.018Z,99956.72
2022-10-15T09:53:11.327Z,99947.56
2022-10-15T09:56:19.571Z,99946.09
2022-10-15T09:59:24.878Z,99943.97
2022-10-15T10:02:29.460Z,99945.03
2022-10-15T10:05:38.135Z,99942.94
2022-10-15T10:12:01.253Z,99939.34
2022-10-15T10:15:08.740Z,99938.63
2022-10-15T10:18:20.312Z,99937.03
2022-10-15T10:21:27.712Z,99941.94
2022-10-15T10:24:34.513Z,99942.97
2022-10-15T10:27:37.770Z,99936.66
2022-10-15T10:30:50.412Z,99935.22
2022-10-15T10:33:53.831Z,99933.75
2022-10-15T10:36:58.617Z,99930.09
2022-10-15T10:40:02.380Z,99919.47
2022-10-15T10:43:18.055Z,99927.59
2022-10-15T10:46:24.420Z,99924.03
2022-10-15T10:49:32.843Z,99912.88
2022-10-15T10:52:39.055Z,99905.16
2022-10-15T10:55:43.419Z,99902.56
2022-10-15T10:58:53.814Z,99903.41
2022-10-15T11:01:57.903Z,99894.88
2022-10-15T11:05:01.137Z,99905.72
2022-10-15T11:08:19.834Z,99902.97
2022-10-15T11:11:31.516Z,99902.38
2022-10-15T11:14:46.492Z,99893.13
2022-10-15T11:17:59.093Z,99901.84
2022-10-15T11:21:13.633Z,99895.69
2022-10-15T11:24:25.978Z,99900.78
2022-10-15T11:27:45.946Z,99884.97
2022-10-15T11:30:56.195Z,99879.66
2022-10-15T11:34:15.820Z,99877.78
2022-10-15T11:37:35.229Z,99876.63
2022-10-15T11:40:52.737Z,99871.13
2022-10-15T11:44:09.677Z,99865.63
2022-10-15T11:47:27.290Z,99862.06
2022-10-15T11:50:34.326Z,99864.25
2022-10-15T11:54:09.686Z,99861.59
2022-10-15T11:57:20.207Z,99862.06
2022-10-15T12:00:33.858Z,99858.31
2022-10-15T12:03:42.128Z,99859.28
2022-10-15T12:06:48.877Z,99859.66
2022-10-15T12:09:55.729Z,99859.16
2022-10-15T12:13:07.249Z,99865.06
2022-10-15T12:16:21.611Z,99864.75
2022-10-15T12:19:29.979Z,99863.72
2022-10-15T12:22:37.837Z,99870.03
2022-10-15T12:25:46.502Z,99865.09
2022-10-15T12:28:53.430Z,99859.78
2022-10-15T12:31:57.262Z,99864.44
2022-10-15T12:35:06.010Z,99868.75
2022-10-15T12:38:28.974Z,99872.00
2022-10-15T12:41:38.563Z,99872.78
2022-10-15T12:44:50.016Z,99862.59
2022-10-15T12:47:56.085Z,99865.56
2022-10-15T12:51:38.828Z,99865.34
2022-10-15T12:54:43.471Z,99860.09
2022-10-15T12:58:02.913Z,99865.66
2022-10-15T13:01:28.242Z,99865.56
2022-10-15T13:04:39.930Z,99861.94
2022-10-15T13:07:48.621Z,99865.78
2022-10-15T13:10:55.862Z,99858.22
2022-10-15T13:14:02.676Z,99862.44
2022-10-15T13:17:16.477Z,99858.94
2022-10-15T13:20:34.686Z,99873.47
2022-10-15T13:23:38.340Z,99860.41
2022-10-15T13:26:42.025Z,99863.19
2022-10-15T13:29:56.194Z,99858.97
2022-10-15T13:33:01.237Z,99852.44
2022-10-15T13:36:08.886Z,99863.75
2022-10-15T13:39:30.374Z,99860.09
2022-10-15T13:42:33.650Z,99866.00
2022-10-15T13:45:37.472Z,99869.47
2022-10-15T13:56:49.485Z,99861.88
2022-10-15T13:59:54.230Z,99855.97
2022-10-15T14:03:19.346Z,99852.28
2022-10-15T14:06:25.898Z,99855.91
2022-10-15T14:09:33.230Z,99858.97
2022-10-15T14:12:36.489Z,99853.06
2022-10-15T14:15:42.559Z,99860.94
2022-10-15T14:18:49.393Z,99859.19
2022-10-15T14:21:54.430Z,99854.06
2022-10-15T14:24:58.291Z,99853.06
2022-10-15T14:28:11.374Z,99852.72
2022-10-15T14:31:31.236Z,99849.13
2022-10-15T14:34:39.772Z,99850.72
2022-10-15T14:37:44.399Z,99855.59
2022-10-15T14:40:58.375Z,99856.72
2022-10-15T14:44:04.392Z,99858.41
2022-10-15T14:47:11.650Z,99846.19
2022-10-15T14:50:14.933Z,99855.78
2022-10-15T14:53:21.966Z,99848.47
2022-10-15T14:56:31.288Z,99848.84
2022-10-15T14:59:38.608Z,99845.56
2022-10-15T15:02:42.305Z,99845.16
2022-10-15T15:05:47.269Z,99841.50
2022-10-15T15:08:52.141Z,99837.63
2022-10-15T15:11:55.430Z,99843.16
2022-10-15T15:14:59.163Z,99839.88
2022-10-15T15:18:02.416Z,99846.63
2022-10-15T15:21:08.901Z,99842.13
2022-10-15T15:24:13.571Z,99838.97
2022-10-15T15:27:26.242Z,99836.97
2022-10-15T15:30:32.864Z,99844.28
2022-10-15T15:33:36.546Z,99849.16
2022-10-15T15:36:40.214Z,99848.53
2022-10-15T15:39:44.927Z,99847.44
2022-10-15T15:42:49.109Z,99852.50
2022-10-15T15:45:52.383Z,99847.38
2022-10-15T15:48:57.096Z,99860.59
2022-10-15T15:52:00.447Z,99865.16
2022-10-15T15:55:05.776Z,99871.50
2022-10-15T15:58:09.039Z,99879.72
2022-10-15T16:01:12.400Z,99879.72
2022-10-15T16:04:15.822Z,99886.00
2022-10-15T16:07:19.652Z,99890.78
2022-10-15T16:10:24.861Z,99909.88
2022-10-15T16:13:28.069Z,99909.00
2022-10-15T16:16:31.257Z,99914.66
2022-10-15T16:19:34.779Z,99927.75
2022-10-15T16:22:38.002Z,99937.81
2022-10-15T16:25:42.541Z,99944.41
2022-10-15T16:28:45.877Z,99943.59
2022-10-15T16:31:49.354Z,99959.66
2022-10-15T16:34:52.555Z,99954.03
2022-10-15T16:37:56.321Z,99963.94
2022-10-15T16:41:01.995Z,99965.97
2022-10-15T16:44:05.521Z,99974.34
2022-10-15T16:47:08.786Z,99972.34
2022-10-15T16:50:12.021Z,99978.78
2022-10-15T16:53:15.348Z,99987.25
2022-10-15T16:56:22.727Z,99992.34
2022-10-15T16:59:26.046Z,99999.34
2022-10-15T17:02:29.308Z,100009.28
2022-10-15T17:05:32.891Z,100010.44
2022-10-15T17:08:40.063Z,100010.22
2022-10-15T17:11:46.968Z,100017.56
2022-10-15T17:14:52.213Z,100018.34
2022-10-15T17:17:55.414Z,100025.63
2022-10-15T17:20:58.656Z,100029.91
2022-10-15T17:24:04.391Z,100027.50
2022-10-15T17:27:09.066Z,100032.88
2022-10-15T17:30:12.775Z,100031.78
2022-10-15T17:33:16.031Z,100043.78
2022-10-15T17:36:21.080Z,100048.06
2022-10-15T17:39:24.995Z,100063.72
2022-10-15T17:42:29.660Z,100070.03
2022-10-15T17:45:33.757Z,100071.81
2022-10-15T17:48:38.135Z,100077.19
2022-10-15T17:51:41.356Z,100078.03
2022-10-15T17:54:45.240Z,100083.81
2022-10-15T17:57:49.907Z,100080.00
2022-10-15T18:00:55.215Z,100081.53
2022-10-15T18:03:58.476Z,100087.28
2022-10-15T18:07:01.736Z,100094.16
2022-10-15T18:10:05.314Z,100101.31
2022-10-15T18:13:09.992Z,100101.13
2022-10-15T18:16:13.424Z,100100.59
2022-10-15T18:19:16.630Z,100092.00
2022-10-15T18:22:20.537Z,100101.47
2022-10-15T18:25:23.809Z,100108.31
2022-10-15T18:28:28.480Z,100101.66
2022-10-15T18:31:31.787Z,100112.69
2022-10-15T18:34:35.358Z,100106.59
2022-10-15T18:37:38.509Z,100107.00
2022-10-15T18:40:41.925Z,100104.94
2022-10-15T18:43:51.037Z,100116.28
2022-10-15T18:46:54.282Z,100109.50
2022-10-15T18:49:57.458Z,100107.31
2022-10-15T18:53:03.196Z,100114.56
2022-10-15T18:56:07.592Z,100106.69
2022-10-15T18:59:12.217Z,100115.25
2022-10-15T19:02:15.583Z,100121.66
2022-10-15T19:05:19.091Z,100117.00
2022-10-15T19:08:22.287Z,100121.66
2022-10-15T19:11:26.515Z,100126.44
2022-10-15T19:14:31.373Z,100135.94
2022-10-15T19:17:34.686Z,100128.59
2022-10-15T19:20:39.642Z,100128.38
2022-10-15T19:23:43.799Z,100135.66
2022-10-15T19:26:49.018Z,100126.88
2022-10-15T19:29:53.619Z,100125.53
2022-10-15T19:32:56.898Z,100123.41
2022-10-15T19:36:00.792Z,100136.19
2022-10-15T19:39:07.168Z,100139.38
2022-10-15T19:42:10.864Z,100145.66
2022-10-15T19:48:24.829Z,100148.41
2022-10-15T19:51:28.170Z,100146.41
2022-10-15T19:54:31.426Z,100148.50
2022-10-15T19:57:34.654Z,100146.25
2022-10-15T20:00:39.426Z,100143.75
2022-10-15T20:03:42.705Z,100139.53
2022-10-15T20:06:46.172Z,100147.00
2022-10-15T20:09:49.439Z,100150.50
2022-10-15T20:12:52.607Z,100151.97
2022-10-15T20:15:57.258Z,100154.81
2022-10-15T20:19:02.488Z,100152.84
2022-10-15T20:22:05.758Z,100159.25
2022-10-15T20:25:09.637Z,100160.59
2022-10-15T20:28:13.853Z,100169.00
2022-10-15T20:31:21.650Z,100167.47
2022-10-15T20:34:25.446Z,100164.03
2022-10-15T20:37:28.740Z,100168.84
2022-10-15T20:40:32.134Z,100168.50
2022-10-15T20:43:35.410Z,100163.38
2022-10-15T20:46:44.994Z,100168.81
2022-10-15T20:49:51.994Z,100163.19
2022-10-15T20:52:57.081Z,100167.69
2022-10-15T20:56:01.538Z,100160.78
2022-10-15T20:59:05.235Z,100162.41
2022-10-15T21:02:10.017Z,100165.69
2022-10-15T21:05:13.184Z,100169.63
2022-10-15T21:08:16.447Z,100176.88
2022-10-15T21:11:19.685Z,100181.66
2022-10-15T21:14:23.038Z,100184.44
2022-10-15T21:17:28.117Z,100179.69
2022-10-15T21:20:31.529Z,100178.22
2022-10-15T21:23:35.338Z,100179.53
2022-10-15T21:26:38.557Z,100175.06
2022-10-15T21:29:42.643Z,100174.41
2022-10-15T21:32:47.291Z,100178.72
2022-10-15T21:35:50.566Z,100174.41
2022-10-15T21:38:55.105Z,100175.44
2022-10-15T21:41:58.478Z,100173.91
2022-10-15T21:45:01.651Z,100172.75
2022-10-15T21:48:06.875Z,100178.34
2022-10-15T21:51:12.625Z,100176.69
2022-10-15T21:54:15.830Z,100184.31
2022-10-15T21:57:19.082Z,100188.25
2022-10-15T22:00:22.331Z,100189.06
2022-10-15T22:03:27.012Z,100203.53
2022-10-15T22:06:32.073Z,100199.41
2022-10-15T22:09:35.445Z,100197.44
2022-10-15T22:12:38.642Z,100198.06
2022-10-15T22:15:41.999Z,100202.22
2022-10-15T22:18:47.176Z,100194.75
2022-10-15T22:21:50.427Z,100196.94
2022-10-15T22:24:54.649Z,100202.88
2022-10-15T22:27:57.882Z,100199.91
2022-10-15T22:31:04.772Z,100200.41
2022-10-15T22:34:09.407Z,100199.72
2022-10-15T22:37:12.640Z,100210.81
2022-10-15T22:40:16.013Z,100218.28
2022-10-15T22:43:19.289Z,100237.38
2022-10-15T22:46:22.420Z,100235.00
2022-10-15T22:49:27.248Z,100236.63
2022-10-15T22:52:30.479Z,100242.47
2022-10-15T22:55:33.761Z,100243.50
2022-10-15T22:58:37.756Z,100246.06
2022-10-15T23:01:41.105Z,100248.00
2022-10-15T23:04:45.811Z,100246.84
2022-10-15T23:07:49.125Z,100239.91
2022-10-15T23:10:52.381Z,100241.91
2022-10-15T23:13:57.522Z,100238.78
2022-10-15T23:17:00.684Z,100253.97
2022-10-15T23:20:05.920Z,100247.88
2022-10-15T23:23:09.137Z,100255.59
2022-10-15T23:26:14.548Z,100254.13
2022-10-15T23:29:20.462Z,100256.09
2022-10-15T23:32:24.139Z,100252.13
2022-10-15T23:35:28.868Z,100247.50
2022-10-15T23:38:32.500Z,100240.25
2022-10-15T23:41:35.778Z,100240.31
2022-10-15T23:47:42.071Z,100248.31
2022-10-15T23:50:46.614Z,100250.50
2022-10-15T23:53:50.513Z,100260.69
2022-10-15T23:56:53.764Z,100271.13
2022-10-15T23:59:57.026Z,100274.75
